This is the latest recevied weather packets stored in our database for station/object KE8GJZ-1. If no packets are shown the sender has not sent any weather packets the latest 10 day(s).
| Time | Temp. | Humidity | Pressure | Rain* | Wind** | Luminosity | Snow |
|---|---|---|---|---|---|---|---|
| 1777994523 | 11.11° C | 77% | 1005.5 hPa | 0 mm | - | 60 W/m² | - |
| 1777994217 | 11.67° C | 75% | 1005.2 hPa | 0 mm | - | 87 W/m² | - |
| 1777993915 | 11.67° C | 72% | 1005.2 hPa | 0 mm | - | 99 W/m² | - |
| 1777993611 | 11.67° C | 71% | 1005.3 hPa | 0 mm | - | 83 W/m² | - |
| 1777993309 | 11.67° C | 69% | 1004.8 hPa | 0 mm | - | 52 W/m² | - |
| 1777993003 | 12.22° C | 70% | 1004.8 hPa | 0 mm | - | 46 W/m² | - |
| 1777992703 | 12.22° C | 67% | 1005.1 hPa | 0 mm | - | 45 W/m² | - |
| 1777992400 | 12.22° C | 69% | 1004.8 hPa | 0 mm | - | 66 W/m² | - |
| 1777992097 | 12.78° C | 67% | 1004.8 hPa | 0 mm | - | 89 W/m² | - |
| 1777991795 | 12.78° C | 65% | 1004.7 hPa | 0 mm | - | 75 W/m² | - |
| 1777991492 | 12.78° C | 65% | 1004.8 hPa | 0 mm | - | 79 W/m² | - |
| 1777991189 | 12.78° C | 64% | 1004.4 hPa | 0 mm | - | 70 W/m² | - |
| 1777990886 | 12.78° C | 64% | 1004.5 hPa | 0 mm | - | 111 W/m² | - |
| 1777990584 | 12.78° C | 66% | 1004.4 hPa | 0 mm | - | 126 W/m² | - |
| 1777989977 | 13.33° C | 62% | 1004.3 hPa | 0 mm | - | 108 W/m² | - |
| 1777989674 | 13.89° C | 61% | 1004.3 hPa | 0 mm | - | 89 W/m² | - |
| 1777989369 | 13.89° C | 66% | 1004 hPa | 0 mm | - | 124 W/m² | - |
| 1777989067 | 13.33° C | 65% | 1004.1 hPa | 0 mm | - | 140 W/m² | - |
| 1777988762 | 13.89° C | 62% | 1004.2 hPa | 0 mm | - | 112 W/m² | - |
| 1777988460 | 13.89° C | 64% | 1003.9 hPa | 0 mm | - | 158 W/m² | - |
| 1777988156 | 13.89° C | 63% | 1004 hPa | 0 mm | - | 121 W/m² | - |
| 1777987852 | 13.89° C | 63% | 1003.9 hPa | 0 mm | - | 115 W/m² | - |
| 1777987549 | 13.89° C | 63% | 1003.4 hPa | 0 mm | - | 90 W/m² | - |
| 1777987247 | 13.89° C | 65% | 1003.4 hPa | 0 mm | - | 150 W/m² | - |
| 1777986943 | 13.33° C | 70% | 1003.2 hPa | 0 mm | - | 180 W/m² | - |
* Rain latest hour (hover to see other rain measurements)
** Current wind speed in m/s (hover to see current wind gust speed)